sensor_id;sensor_type;location;lat;lon;timestamp;P1;durP1;ratioP1;P2;durP2;ratioP2
5730;SDS011;2890;51.950;7.668;2023-08-01T00:02:15;4.07;;;3.53;;
5730;SDS011;2890;51.950;7.668;2023-08-01T00:04:42;4.37;;;3.97;;
5730;SDS011;2890;51.950;7.668;2023-08-01T00:07:08;4.10;;;3.70;;
5730;SDS011;2890;51.950;7.668;2023-08-01T00:09:35;4.50;;;4.10;;
5730;SDS011;2890;51.950;7.668;2023-08-01T00:12:03;5.00;;;3.80;;
5730;SDS011;2890;51.950;7.668;2023-08-01T00:14:30;6.37;;;4.07;;
5730;SDS011;2890;51.950;7.668;2023-08-01T00:16:57;4.70;;;4.33;;
5730;SDS011;2890;51.950;7.668;2023-08-01T00:19:24;5.60;;;5.10;;
5730;SDS011;2890;51.950;7.668;2023-08-01T00:21:50;5.70;;;4.70;;
5730;SDS011;2890;51.950;7.668;2023-08-01T00:24:17;6.27;;;4.20;;
5730;SDS011;2890;51.950;7.668;2023-08-01T00:26:43;3.90;;;3.57;;
5730;SDS011;2890;51.950;7.668;2023-08-01T00:29:11;6.00;;;4.17;;
5730;SDS011;2890;51.950;7.668;2023-08-01T00:31:37;4.40;;;4.10;;
5730;SDS011;2890;51.950;7.668;2023-08-01T00:34:04;8.33;;;4.53;;
5730;SDS011;2890;51.950;7.668;2023-08-01T00:36:30;8.63;;;5.10;;
5730;SDS011;2890;51.950;7.668;2023-08-01T00:38:57;5.20;;;4.70;;
5730;SDS011;2890;51.950;7.668;2023-08-01T00:41:23;8.47;;;4.80;;
5730;SDS011;2890;51.950;7.668;2023-08-01T00:43:50;5.80;;;5.27;;
5730;SDS011;2890;51.950;7.668;2023-08-01T00:46:18;5.97;;;4.17;;
5730;SDS011;2890;51.950;7.668;2023-08-01T00:48:44;7.37;;;3.97;;
5730;SDS011;2890;51.950;7.668;2023-08-01T00:51:11;6.00;;;3.93;;
5730;SDS011;2890;51.950;7.668;2023-08-01T00:53:37;4.97;;;4.10;;
5730;SDS011;2890;51.950;7.668;2023-08-01T00:56:04;6.20;;;4.20;;
5730;SDS011;2890;51.950;7.668;2023-08-01T00:58:31;4.60;;;4.20;;
5730;SDS011;2890;51.950;7.668;2023-08-01T01:00:57;4.80;;;4.40;;
5730;SDS011;2890;51.950;7.668;2023-08-01T01:03:26;4.17;;;3.87;;
5730;SDS011;2890;51.950;7.668;2023-08-01T01:05:53;5.37;;;4.07;;
5730;SDS011;2890;51.950;7.668;2023-08-01T01:08:23;4.97;;;4.03;;
5730;SDS011;2890;51.950;7.668;2023-08-01T01:10:50;7.27;;;4.90;;
5730;SDS011;2890;51.950;7.668;2023-08-01T01:13:17;3.97;;;3.67;;
5730;SDS011;2890;51.950;7.668;2023-08-01T01:15:43;5.07;;;4.67;;
5730;SDS011;2890;51.950;7.668;2023-08-01T01:18:09;4.90;;;4.07;;
5730;SDS011;2890;51.950;7.668;2023-08-01T01:20:38;4.37;;;4.07;;
5730;SDS011;2890;51.950;7.668;2023-08-01T01:23:05;3.70;;;3.40;;
5730;SDS011;2890;51.950;7.668;2023-08-01T01:25:32;4.30;;;3.50;;
5730;SDS011;2890;51.950;7.668;2023-08-01T01:27:59;7.33;;;3.90;;
5730;SDS011;2890;51.950;7.668;2023-08-01T01:30:26;4.10;;;3.70;;
5730;SDS011;2890;51.950;7.668;2023-08-01T01:32:52;5.57;;;3.70;;
5730;SDS011;2890;51.950;7.668;2023-08-01T01:35:19;6.23;;;3.50;;
5730;SDS011;2890;51.950;7.668;2023-08-01T01:37:47;4.80;;;3.80;;
5730;SDS011;2890;51.950;7.668;2023-08-01T01:40:13;4.30;;;3.87;;
5730;SDS011;2890;51.950;7.668;2023-08-01T01:42:40;4.50;;;3.67;;
5730;SDS011;2890;51.950;7.668;2023-08-01T01:45:06;4.33;;;3.93;;
5730;SDS011;2890;51.950;7.668;2023-08-01T01:47:33;6.00;;;4.47;;
5730;SDS011;2890;51.950;7.668;2023-08-01T01:49:59;5.00;;;3.80;;
5730;SDS011;2890;51.950;7.668;2023-08-01T01:52:26;4.83;;;4.33;;
5730;SDS011;2890;51.950;7.668;2023-08-01T01:54:54;4.07;;;3.73;;
5730;SDS011;2890;51.950;7.668;2023-08-01T01:57:20;5.63;;;4.20;;
5730;SDS011;2890;51.950;7.668;2023-08-01T01:59:47;8.30;;;5.20;;
5730;SDS011;2890;51.950;7.668;2023-08-01T02:02:13;9.07;;;4.87;;
5730;SDS011;2890;51.950;7.668;2023-08-01T02:04:40;6.70;;;6.00;;
5730;SDS011;2890;51.950;7.668;2023-08-01T02:07:06;6.43;;;5.80;;
5730;SDS011;2890;51.950;7.668;2023-08-01T02:09:33;8.70;;;6.30;;
5730;SDS011;2890;51.950;7.668;2023-08-01T02:12:01;8.00;;;5.80;;
5730;SDS011;2890;51.950;7.668;2023-08-01T02:14:29;7.13;;;5.10;;
5730;SDS011;2890;51.950;7.668;2023-08-01T02:16:56;7.23;;;5.33;;
5730;SDS011;2890;51.950;7.668;2023-08-01T02:19:22;7.13;;;6.00;;
5730;SDS011;2890;51.950;7.668;2023-08-01T02:21:49;5.20;;;4.77;;
5730;SDS011;2890;51.950;7.668;2023-08-01T02:24:15;8.20;;;5.70;;
5730;SDS011;2890;51.950;7.668;2023-08-01T02:26:42;6.50;;;5.90;;
5730;SDS011;2890;51.950;7.668;2023-08-01T02:29:09;7.23;;;6.10;;
5730;SDS011;2890;51.950;7.668;2023-08-01T02:31:36;10.93;;;7.60;;
5730;SDS011;2890;51.950;7.668;2023-08-01T02:34:02;10.43;;;7.53;;
5730;SDS011;2890;51.950;7.668;2023-08-01T02:36:29;12.10;;;7.67;;
5730;SDS011;2890;51.950;7.668;2023-08-01T02:38:55;12.53;;;8.43;;
5730;SDS011;2890;51.950;7.668;2023-08-01T02:41:22;11.43;;;7.80;;
5730;SDS011;2890;51.950;7.668;2023-08-01T02:43:48;9.73;;;7.47;;
5730;SDS011;2890;51.950;7.668;2023-08-01T02:46:16;7.87;;;6.70;;
5730;SDS011;2890;51.950;7.668;2023-08-01T02:48:43;10.47;;;6.40;;
5730;SDS011;2890;51.950;7.668;2023-08-01T02:51:09;8.20;;;6.03;;
5730;SDS011;2890;51.950;7.668;2023-08-01T02:53:36;9.80;;;6.90;;
5730;SDS011;2890;51.950;7.668;2023-08-01T02:56:05;12.10;;;6.70;;
5730;SDS011;2890;51.950;7.668;2023-08-01T02:58:33;12.00;;;7.80;;
5730;SDS011;2890;51.950;7.668;2023-08-01T03:01:00;8.83;;;7.20;;
5730;SDS011;2890;51.950;7.668;2023-08-01T03:03:28;9.50;;;7.80;;
5730;SDS011;2890;51.950;7.668;2023-08-01T03:05:54;8.60;;;7.00;;
5730;SDS011;2890;51.950;7.668;2023-08-01T03:08:21;10.37;;;8.17;;
5730;SDS011;2890;51.950;7.668;2023-08-01T03:10:48;12.20;;;9.43;;
5730;SDS011;2890;51.950;7.668;2023-08-01T03:13:14;14.80;;;9.93;;
5730;SDS011;2890;51.950;7.668;2023-08-01T03:15:41;12.33;;;9.87;;
5730;SDS011;2890;51.950;7.668;2023-08-01T03:18:07;13.50;;;10.30;;
5730;SDS011;2890;51.950;7.668;2023-08-01T03:20:35;13.13;;;10.80;;
5730;SDS011;2890;51.950;7.668;2023-08-01T03:23:02;11.70;;;10.47;;
5730;SDS011;2890;51.950;7.668;2023-08-01T03:25:28;17.10;;;10.90;;
5730;SDS011;2890;51.950;7.668;2023-08-01T03:27:55;16.47;;;10.83;;
5730;SDS011;2890;51.950;7.668;2023-08-01T03:30:22;15.40;;;11.10;;
5730;SDS011;2890;51.950;7.668;2023-08-01T03:32:49;18.93;;;10.97;;
5730;SDS011;2890;51.950;7.668;2023-08-01T03:35:15;14.93;;;11.03;;
5730;SDS011;2890;51.950;7.668;2023-08-01T03:37:44;21.90;;;13.17;;
5730;SDS011;2890;51.950;7.668;2023-08-01T03:40:10;18.37;;;12.47;;
5730;SDS011;2890;51.950;7.668;2023-08-01T03:42:37;23.80;;;13.63;;
5730;SDS011;2890;51.950;7.668;2023-08-01T03:45:04;23.00;;;12.13;;
5730;SDS011;2890;51.950;7.668;2023-08-01T03:47:31;20.50;;;12.70;;
5730;SDS011;2890;51.950;7.668;2023-08-01T03:49:58;16.93;;;11.80;;
5730;SDS011;2890;51.950;7.668;2023-08-01T03:52:24;15.70;;;12.80;;
5730;SDS011;2890;51.950;7.668;2023-08-01T03:54:54;24.70;;;13.07;;
5730;SDS011;2890;51.950;7.668;2023-08-01T03:57:21;16.97;;;11.77;;
5730;SDS011;2890;51.950;7.668;2023-08-01T03:59:47;23.50;;;12.20;;
5730;SDS011;2890;51.950;7.668;2023-08-01T04:02:14;21.33;;;12.50;;
5730;SDS011;2890;51.950;7.668;2023-08-01T04:04:40;20.83;;;12.53;;
5730;SDS011;2890;51.950;7.668;2023-08-01T04:07:07;21.07;;;14.00;;
5730;SDS011;2890;51.950;7.668;2023-08-01T04:09:33;25.50;;;13.70;;
5730;SDS011;2890;51.950;7.668;2023-08-01T04:12:01;29.60;;;14.63;;
5730;SDS011;2890;51.950;7.668;2023-08-01T04:14:28;29.03;;;14.80;;
5730;SDS011;2890;51.950;7.668;2023-08-01T04:16:54;23.00;;;15.17;;
5730;SDS011;2890;51.950;7.668;2023-08-01T04:19:21;26.40;;;14.90;;
5730;SDS011;2890;51.950;7.668;2023-08-01T04:21:48;22.53;;;15.10;;
5730;SDS011;2890;51.950;7.668;2023-08-01T04:24:14;32.07;;;16.37;;
5730;SDS011;2890;51.950;7.668;2023-08-01T04:26:41;21.40;;;15.17;;
5730;SDS011;2890;51.950;7.668;2023-08-01T04:29:09;22.90;;;15.77;;
5730;SDS011;2890;51.950;7.668;2023-08-01T04:31:35;27.50;;;15.20;;
5730;SDS011;2890;51.950;7.668;2023-08-01T04:34:02;26.33;;;14.90;;
5730;SDS011;2890;51.950;7.668;2023-08-01T04:36:28;27.77;;;16.27;;
5730;SDS011;2890;51.950;7.668;2023-08-01T04:38:55;23.60;;;14.53;;
5730;SDS011;2890;51.950;7.668;2023-08-01T04:41:21;27.90;;;15.83;;
5730;SDS011;2890;51.950;7.668;2023-08-01T04:43:48;26.90;;;16.00;;
5730;SDS011;2890;51.950;7.668;2023-08-01T04:46:15;30.80;;;16.40;;
5730;SDS011;2890;51.950;7.668;2023-08-01T04:48:42;33.57;;;15.33;;
5730;SDS011;2890;51.950;7.668;2023-08-01T04:51:08;21.23;;;14.57;;
5730;SDS011;2890;51.950;7.668;2023-08-01T04:53:35;31.43;;;15.03;;
5730;SDS011;2890;51.950;7.668;2023-08-01T04:56:01;24.37;;;15.60;;
5730;SDS011;2890;51.950;7.668;2023-08-01T04:58:28;31.63;;;16.30;;
5730;SDS011;2890;51.950;7.668;2023-08-01T05:00:55;28.97;;;15.40;;
5730;SDS011;2890;51.950;7.668;2023-08-01T05:03:23;29.27;;;15.60;;
5730;SDS011;2890;51.950;7.668;2023-08-01T05:05:50;27.27;;;15.70;;
5730;SDS011;2890;51.950;7.668;2023-08-01T05:08:16;33.20;;;15.53;;
5730;SDS011;2890;51.950;7.668;2023-08-01T05:10:43;27.80;;;15.73;;
5730;SDS011;2890;51.950;7.668;2023-08-01T05:13:09;31.53;;;15.97;;
5730;SDS011;2890;51.950;7.668;2023-08-01T05:15:36;26.90;;;15.27;;
5730;SDS011;2890;51.950;7.668;2023-08-01T05:18:03;27.20;;;16.67;;
5730;SDS011;2890;51.950;7.668;2023-08-01T05:20:33;31.63;;;15.27;;
5730;SDS011;2890;51.950;7.668;2023-08-01T05:22:59;30.73;;;16.13;;
5730;SDS011;2890;51.950;7.668;2023-08-01T05:25:26;29.87;;;17.50;;
5730;SDS011;2890;51.950;7.668;2023-08-01T05:27:52;28.53;;;16.23;;
5730;SDS011;2890;51.950;7.668;2023-08-01T05:30:19;28.40;;;16.93;;
5730;SDS011;2890;51.950;7.668;2023-08-01T05:32:45;29.70;;;17.60;;
5730;SDS011;2890;51.950;7.668;2023-08-01T05:35:12;30.37;;;17.57;;
5730;SDS011;2890;51.950;7.668;2023-08-01T05:37:39;45.73;;;18.93;;
5730;SDS011;2890;51.950;7.668;2023-08-01T05:40:07;29.63;;;17.93;;
5730;SDS011;2890;51.950;7.668;2023-08-01T05:42:34;37.00;;;18.80;;
5730;SDS011;2890;51.950;7.668;2023-08-01T05:45:01;28.40;;;18.73;;
5730;SDS011;2890;51.950;7.668;2023-08-01T05:47:29;26.37;;;17.30;;
5730;SDS011;2890;51.950;7.668;2023-08-01T05:49:55;39.30;;;18.30;;
5730;SDS011;2890;51.950;7.668;2023-08-01T05:52:22;38.67;;;18.93;;
5730;SDS011;2890;51.950;7.668;2023-08-01T05:54:50;31.80;;;18.93;;
5730;SDS011;2890;51.950;7.668;2023-08-01T05:57:17;26.50;;;17.50;;
5730;SDS011;2890;51.950;7.668;2023-08-01T05:59:43;30.03;;;18.23;;
5730;SDS011;2890;51.950;7.668;2023-08-01T06:02:10;33.90;;;17.63;;
5730;SDS011;2890;51.950;7.668;2023-08-01T06:04:36;31.40;;;18.70;;
5730;SDS011;2890;51.950;7.668;2023-08-01T06:07:04;27.77;;;17.93;;
5730;SDS011;2890;51.950;7.668;2023-08-01T06:09:30;29.50;;;18.83;;
5730;SDS011;2890;51.950;7.668;2023-08-01T06:11:58;43.30;;;20.53;;
5730;SDS011;2890;51.950;7.668;2023-08-01T06:14:25;39.00;;;21.33;;
5730;SDS011;2890;51.950;7.668;2023-08-01T06:16:51;33.97;;;20.73;;
5730;SDS011;2890;51.950;7.668;2023-08-01T06:19:27;28.60;;;19.67;;
5730;SDS011;2890;51.950;7.668;2023-08-01T06:21:53;31.00;;;20.10;;
5730;SDS011;2890;51.950;7.668;2023-08-01T06:24:19;33.73;;;19.60;;
5730;SDS011;2890;51.950;7.668;2023-08-01T06:26:46;33.03;;;21.57;;
5730;SDS011;2890;51.950;7.668;2023-08-01T06:29:14;31.97;;;20.13;;
5730;SDS011;2890;51.950;7.668;2023-08-01T06:31:40;31.33;;;21.50;;
5730;SDS011;2890;51.950;7.668;2023-08-01T06:34:07;34.00;;;21.77;;
5730;SDS011;2890;51.950;7.668;2023-08-01T06:36:32;34.37;;;20.37;;
5730;SDS011;2890;51.950;7.668;2023-08-01T06:39:00;36.77;;;20.83;;
5730;SDS011;2890;51.950;7.668;2023-08-01T06:41:26;32.67;;;20.97;;
5730;SDS011;2890;51.950;7.668;2023-08-01T06:43:53;34.67;;;21.67;;
5730;SDS011;2890;51.950;7.668;2023-08-01T06:46:22;34.27;;;22.03;;
5730;SDS011;2890;51.950;7.668;2023-08-01T06:48:53;35.00;;;23.17;;
5730;SDS011;2890;51.950;7.668;2023-08-01T06:51:19;36.70;;;23.17;;
5730;SDS011;2890;51.950;7.668;2023-08-01T06:53:46;35.47;;;22.70;;
5730;SDS011;2890;51.950;7.668;2023-08-01T06:56:13;35.60;;;23.37;;
5730;SDS011;2890;51.950;7.668;2023-08-01T06:58:39;43.70;;;23.13;;
5730;SDS011;2890;51.950;7.668;2023-08-01T07:01:06;39.63;;;24.10;;
5730;SDS011;2890;51.950;7.668;2023-08-01T07:03:33;40.37;;;21.93;;
5730;SDS011;2890;51.950;7.668;2023-08-01T07:06:00;45.23;;;24.20;;
5730;SDS011;2890;51.950;7.668;2023-08-01T07:08:26;32.57;;;23.13;;
5730;SDS011;2890;51.950;7.668;2023-08-01T07:10:53;44.53;;;26.23;;
5730;SDS011;2890;51.950;7.668;2023-08-01T07:13:19;47.30;;;24.93;;
5730;SDS011;2890;51.950;7.668;2023-08-01T07:15:47;36.63;;;25.03;;
5730;SDS011;2890;51.950;7.668;2023-08-01T07:18:14;43.47;;;24.80;;
5730;SDS011;2890;51.950;7.668;2023-08-01T07:20:41;39.80;;;24.60;;
5730;SDS011;2890;51.950;7.668;2023-08-01T07:23:08;44.83;;;24.20;;
5730;SDS011;2890;51.950;7.668;2023-08-01T07:25:34;33.97;;;24.20;;
5730;SDS011;2890;51.950;7.668;2023-08-01T07:28:01;33.93;;;23.60;;
5730;SDS011;2890;51.950;7.668;2023-08-01T07:30:28;32.50;;;22.57;;
5730;SDS011;2890;51.950;7.668;2023-08-01T07:32:55;35.83;;;21.37;;
5730;SDS011;2890;51.950;7.668;2023-08-01T07:35:24;34.77;;;19.50;;
5730;SDS011;2890;51.950;7.668;2023-08-01T07:37:52;26.83;;;19.47;;
5730;SDS011;2890;51.950;7.668;2023-08-01T07:40:18;33.80;;;21.20;;
5730;SDS011;2890;51.950;7.668;2023-08-01T07:42:45;35.03;;;20.50;;
5730;SDS011;2890;51.950;7.668;2023-08-01T07:45:12;40.13;;;21.00;;
5730;SDS011;2890;51.950;7.668;2023-08-01T07:47:38;24.93;;;19.70;;
5730;SDS011;2890;51.950;7.668;2023-08-01T07:50:05;28.40;;;20.30;;
5730;SDS011;2890;51.950;7.668;2023-08-01T07:52:32;24.63;;;19.10;;
5730;SDS011;2890;51.950;7.668;2023-08-01T07:55:00;27.70;;;16.80;;
5730;SDS011;2890;51.950;7.668;2023-08-01T07:57:27;23.60;;;17.27;;
5730;SDS011;2890;51.950;7.668;2023-08-01T07:59:53;18.50;;;16.03;;
5730;SDS011;2890;51.950;7.668;2023-08-01T08:02:20;19.37;;;15.87;;
5730;SDS011;2890;51.950;7.668;2023-08-01T08:04:46;17.33;;;13.80;;
5730;SDS011;2890;51.950;7.668;2023-08-01T08:07:13;24.57;;;16.20;;
5730;SDS011;2890;51.950;7.668;2023-08-01T08:09:40;23.40;;;15.60;;
5730;SDS011;2890;51.950;7.668;2023-08-01T08:12:08;22.20;;;15.93;;
5730;SDS011;2890;51.950;7.668;2023-08-01T08:14:34;23.07;;;15.77;;
5730;SDS011;2890;51.950;7.668;2023-08-01T08:17:01;23.67;;;15.43;;
5730;SDS011;2890;51.950;7.668;2023-08-01T08:19:27;19.20;;;13.17;;
5730;SDS011;2890;51.950;7.668;2023-08-01T08:21:54;15.20;;;12.60;;
5730;SDS011;2890;51.950;7.668;2023-08-01T08:24:20;13.47;;;11.20;;
5730;SDS011;2890;51.950;7.668;2023-08-01T08:26:47;13.90;;;10.70;;
5730;SDS011;2890;51.950;7.668;2023-08-01T08:29:15;11.63;;;10.00;;
5730;SDS011;2890;51.950;7.668;2023-08-01T08:31:41;13.70;;;9.60;;
5730;SDS011;2890;51.950;7.668;2023-08-01T08:34:08;14.50;;;10.40;;
5730;SDS011;2890;51.950;7.668;2023-08-01T08:36:34;11.90;;;10.77;;
5730;SDS011;2890;51.950;7.668;2023-08-01T08:39:01;14.03;;;10.43;;
5730;SDS011;2890;51.950;7.668;2023-08-01T08:41:28;14.03;;;10.83;;
5730;SDS011;2890;51.950;7.668;2023-08-01T08:43:56;19.70;;;11.83;;
5730;SDS011;2890;51.950;7.668;2023-08-01T08:46:26;13.80;;;10.43;;
5730;SDS011;2890;51.950;7.668;2023-08-01T08:48:55;15.03;;;9.57;;
5730;SDS011;2890;51.950;7.668;2023-08-01T08:51:22;12.07;;;10.77;;
5730;SDS011;2890;51.950;7.668;2023-08-01T08:53:50;10.20;;;9.17;;
5730;SDS011;2890;51.950;7.668;2023-08-01T08:56:19;11.87;;;7.70;;
5730;SDS011;2890;51.950;7.668;2023-08-01T08:58:47;9.07;;;8.17;;
5730;SDS011;2890;51.950;7.668;2023-08-01T09:01:14;7.87;;;7.07;;
5730;SDS011;2890;51.950;7.668;2023-08-01T09:03:42;12.73;;;7.10;;
5730;SDS011;2890;51.950;7.668;2023-08-01T09:06:11;10.00;;;6.43;;
5730;SDS011;2890;51.950;7.668;2023-08-01T09:08:39;7.83;;;6.67;;
5730;SDS011;2890;51.950;7.668;2023-08-01T09:11:06;7.83;;;7.00;;
5730;SDS011;2890;51.950;7.668;2023-08-01T09:13:33;9.67;;;7.57;;
5730;SDS011;2890;51.950;7.668;2023-08-01T09:16:01;10.47;;;8.10;;
5730;SDS011;2890;51.950;7.668;2023-08-01T09:18:28;8.83;;;8.07;;
5730;SDS011;2890;51.950;7.668;2023-08-01T09:20:56;11.50;;;8.27;;
5730;SDS011;2890;51.950;7.668;2023-08-01T09:23:27;13.30;;;8.10;;
5730;SDS011;2890;51.950;7.668;2023-08-01T09:25:55;8.10;;;7.00;;
5730;SDS011;2890;51.950;7.668;2023-08-01T09:28:22;8.80;;;7.30;;
5730;SDS011;2890;51.950;7.668;2023-08-01T09:30:50;19.10;;;7.97;;
5730;SDS011;2890;51.950;7.668;2023-08-01T09:33:19;11.40;;;8.07;;
5730;SDS011;2890;51.950;7.668;2023-08-01T09:35:46;8.33;;;6.43;;
5730;SDS011;2890;51.950;7.668;2023-08-01T09:38:14;9.30;;;6.57;;
5730;SDS011;2890;51.950;7.668;2023-08-01T09:40:41;8.17;;;5.37;;
5730;SDS011;2890;51.950;7.668;2023-08-01T09:43:09;7.27;;;5.40;;
5730;SDS011;2890;51.950;7.668;2023-08-01T09:45:36;8.77;;;6.03;;
5730;SDS011;2890;51.950;7.668;2023-08-01T09:48:02;5.27;;;4.73;;
5730;SDS011;2890;51.950;7.668;2023-08-01T09:50:30;10.57;;;5.97;;
5730;SDS011;2890;51.950;7.668;2023-08-01T09:53:06;6.57;;;4.27;;
5730;SDS011;2890;51.950;7.668;2023-08-01T09:55:34;5.20;;;4.10;;
5730;SDS011;2890;51.950;7.668;2023-08-01T09:58:01;3.87;;;3.47;;
5730;SDS011;2890;51.950;7.668;2023-08-01T10:00:28;4.80;;;4.40;;
5730;SDS011;2890;51.950;7.668;2023-08-01T10:02:56;4.73;;;4.07;;
5730;SDS011;2890;51.950;7.668;2023-08-01T10:05:25;5.20;;;4.33;;
5730;SDS011;2890;51.950;7.668;2023-08-01T10:07:53;11.13;;;4.87;;
5730;SDS011;2890;51.950;7.668;2023-08-01T10:10:20;4.93;;;4.27;;
5730;SDS011;2890;51.950;7.668;2023-08-01T10:12:48;10.00;;;4.47;;
5730;SDS011;2890;51.950;7.668;2023-08-01T10:15:15;6.80;;;4.60;;
5730;SDS011;2890;51.950;7.668;2023-08-01T10:17:42;7.57;;;4.63;;
5730;SDS011;2890;51.950;7.668;2023-08-01T10:20:09;7.97;;;4.93;;
5730;SDS011;2890;51.950;7.668;2023-08-01T10:22:37;7.17;;;5.60;;
5730;SDS011;2890;51.950;7.668;2023-08-01T10:25:04;6.40;;;5.23;;
5730;SDS011;2890;51.950;7.668;2023-08-01T10:27:32;7.00;;;4.77;;
5730;SDS011;2890;51.950;7.668;2023-08-01T10:30:02;5.67;;;5.17;;
5730;SDS011;2890;51.950;7.668;2023-08-01T10:32:33;14.43;;;6.20;;
5730;SDS011;2890;51.950;7.668;2023-08-01T10:35:00;7.13;;;6.30;;
5730;SDS011;2890;51.950;7.668;2023-08-01T10:37:27;7.77;;;5.90;;
5730;SDS011;2890;51.950;7.668;2023-08-01T10:40:05;5.53;;;4.47;;
5730;SDS011;2890;51.950;7.668;2023-08-01T10:42:37;5.97;;;5.50;;
5730;SDS011;2890;51.950;7.668;2023-08-01T10:45:06;5.57;;;5.13;;
5730;SDS011;2890;51.950;7.668;2023-08-01T10:47:33;5.80;;;5.30;;
5730;SDS011;2890;51.950;7.668;2023-08-01T10:49:59;5.93;;;4.67;;
5730;SDS011;2890;51.950;7.668;2023-08-01T10:52:26;6.27;;;4.63;;
5730;SDS011;2890;51.950;7.668;2023-08-01T10:54:57;8.63;;;4.30;;
5730;SDS011;2890;51.950;7.668;2023-08-01T10:57:26;6.13;;;5.00;;
5730;SDS011;2890;51.950;7.668;2023-08-01T10:59:52;7.87;;;4.80;;
5730;SDS011;2890;51.950;7.668;2023-08-01T11:02:22;5.70;;;4.50;;
5730;SDS011;2890;51.950;7.668;2023-08-01T11:04:55;8.03;;;4.80;;
5730;SDS011;2890;51.950;7.668;2023-08-01T11:07:23;6.83;;;4.83;;
5730;SDS011;2890;51.950;7.668;2023-08-01T11:09:50;7.47;;;4.57;;
5730;SDS011;2890;51.950;7.668;2023-08-01T11:12:33;5.30;;;4.80;;
5730;SDS011;2890;51.950;7.668;2023-08-01T11:15:01;5.50;;;4.97;;
5730;SDS011;2890;51.950;7.668;2023-08-01T11:17:29;5.77;;;4.50;;
5730;SDS011;2890;51.950;7.668;2023-08-01T11:20:00;4.83;;;4.33;;
5730;SDS011;2890;51.950;7.668;2023-08-01T11:22:28;6.27;;;4.47;;
5730;SDS011;2890;51.950;7.668;2023-08-01T11:24:54;4.80;;;4.07;;
5730;SDS011;2890;51.950;7.668;2023-08-01T11:27:21;7.07;;;4.53;;
5730;SDS011;2890;51.950;7.668;2023-08-01T11:29:47;10.43;;;4.33;;
5730;SDS011;2890;51.950;7.668;2023-08-01T11:32:14;4.73;;;3.90;;
5730;SDS011;2890;51.950;7.668;2023-08-01T11:34:42;8.37;;;3.77;;
5730;SDS011;2890;51.950;7.668;2023-08-01T11:37:09;4.37;;;3.90;;
5730;SDS011;2890;51.950;7.668;2023-08-01T11:39:36;5.03;;;3.37;;
5730;SDS011;2890;51.950;7.668;2023-08-01T11:42:03;5.07;;;3.80;;
5730;SDS011;2890;51.950;7.668;2023-08-01T11:44:29;5.83;;;4.00;;
5730;SDS011;2890;51.950;7.668;2023-08-01T11:46:57;7.93;;;4.50;;
5730;SDS011;2890;51.950;7.668;2023-08-01T11:49:23;6.60;;;4.20;;
5730;SDS011;2890;51.950;7.668;2023-08-01T11:51:52;6.07;;;3.60;;
5730;SDS011;2890;51.950;7.668;2023-08-01T11:54:19;3.43;;;2.70;;
5730;SDS011;2890;51.950;7.668;2023-08-01T11:56:46;4.77;;;3.27;;
5730;SDS011;2890;51.950;7.668;2023-08-01T11:59:13;4.47;;;3.10;;
5730;SDS011;2890;51.950;7.668;2023-08-01T12:01:42;6.20;;;3.10;;
5730;SDS011;2890;51.950;7.668;2023-08-01T12:04:09;7.30;;;3.33;;
5730;SDS011;2890;51.950;7.668;2023-08-01T12:06:36;3.80;;;2.70;;
5730;SDS011;2890;51.950;7.668;2023-08-01T12:09:08;5.30;;;3.20;;
5730;SDS011;2890;51.950;7.668;2023-08-01T12:11:36;4.33;;;2.47;;
5730;SDS011;2890;51.950;7.668;2023-08-01T12:14:03;7.20;;;2.90;;
5730;SDS011;2890;51.950;7.668;2023-08-01T12:16:30;4.83;;;2.77;;
5730;SDS011;2890;51.950;7.668;2023-08-01T12:18:57;4.53;;;3.00;;
5730;SDS011;2890;51.950;7.668;2023-08-01T12:21:23;3.77;;;3.00;;
5730;SDS011;2890;51.950;7.668;2023-08-01T12:23:50;3.50;;;2.50;;
5730;SDS011;2890;51.950;7.668;2023-08-01T12:26:18;4.67;;;3.20;;
5730;SDS011;2890;51.950;7.668;2023-08-01T12:28:44;4.53;;;3.30;;
5730;SDS011;2890;51.950;7.668;2023-08-01T12:31:15;7.20;;;3.37;;
5730;SDS011;2890;51.950;7.668;2023-08-01T12:33:42;5.00;;;3.20;;
5730;SDS011;2890;51.950;7.668;2023-08-01T12:36:08;3.50;;;2.97;;
5730;SDS011;2890;51.950;7.668;2023-08-01T12:38:35;5.70;;;2.73;;
5730;SDS011;2890;51.950;7.668;2023-08-01T12:41:01;2.97;;;2.63;;
5730;SDS011;2890;51.950;7.668;2023-08-01T12:43:29;3.67;;;2.60;;
5730;SDS011;2890;51.950;7.668;2023-08-01T12:45:56;3.40;;;2.40;;
5730;SDS011;2890;51.950;7.668;2023-08-01T12:48:23;3.53;;;3.20;;
5730;SDS011;2890;51.950;7.668;2023-08-01T12:50:49;6.97;;;3.57;;
5730;SDS011;2890;51.950;7.668;2023-08-01T12:53:16;6.97;;;3.13;;
5730;SDS011;2890;51.950;7.668;2023-08-01T12:55:43;5.40;;;3.20;;
5730;SDS011;2890;51.950;7.668;2023-08-01T12:58:10;5.67;;;3.60;;
5730;SDS011;2890;51.950;7.668;2023-08-01T13:00:38;5.37;;;4.13;;
5730;SDS011;2890;51.950;7.668;2023-08-01T13:03:05;5.73;;;3.70;;
5730;SDS011;2890;51.950;7.668;2023-08-01T13:05:33;4.37;;;3.40;;
5730;SDS011;2890;51.950;7.668;2023-08-01T13:08:00;5.50;;;3.30;;
5730;SDS011;2890;51.950;7.668;2023-08-01T13:10:29;7.30;;;3.03;;
5730;SDS011;2890;51.950;7.668;2023-08-01T13:12:56;4.80;;;3.27;;
5730;SDS011;2890;51.950;7.668;2023-08-01T13:15:23;5.93;;;3.57;;
5730;SDS011;2890;51.950;7.668;2023-08-01T13:17:51;6.00;;;3.10;;
5730;SDS011;2890;51.950;7.668;2023-08-01T13:20:17;7.17;;;3.23;;
5730;SDS011;2890;51.950;7.668;2023-08-01T13:22:45;5.77;;;3.60;;
5730;SDS011;2890;51.950;7.668;2023-08-01T13:25:12;4.30;;;3.70;;
5730;SDS011;2890;51.950;7.668;2023-08-01T13:27:39;3.83;;;2.40;;
5730;SDS011;2890;51.950;7.668;2023-08-01T13:30:06;5.70;;;3.00;;
5730;SDS011;2890;51.950;7.668;2023-08-01T13:32:33;4.93;;;3.90;;
5730;SDS011;2890;51.950;7.668;2023-08-01T13:35:01;5.40;;;2.80;;
5730;SDS011;2890;51.950;7.668;2023-08-01T13:37:28;3.23;;;2.30;;
5730;SDS011;2890;51.950;7.668;2023-08-01T13:39:56;4.57;;;2.97;;
5730;SDS011;2890;51.950;7.668;2023-08-01T13:42:23;5.73;;;2.53;;
5730;SDS011;2890;51.950;7.668;2023-08-01T13:44:49;3.60;;;2.50;;
5730;SDS011;2890;51.950;7.668;2023-08-01T13:47:16;2.90;;;2.40;;
5730;SDS011;2890;51.950;7.668;2023-08-01T13:49:42;6.00;;;2.50;;
5730;SDS011;2890;51.950;7.668;2023-08-01T13:52:10;4.10;;;2.40;;
5730;SDS011;2890;51.950;7.668;2023-08-01T13:54:36;4.67;;;2.90;;
5730;SDS011;2890;51.950;7.668;2023-08-01T13:57:03;9.33;;;2.90;;
5730;SDS011;2890;51.950;7.668;2023-08-01T13:59:30;6.03;;;3.13;;
5730;SDS011;2890;51.950;7.668;2023-08-01T14:01:56;4.87;;;2.97;;
5730;SDS011;2890;51.950;7.668;2023-08-01T14:04:23;4.73;;;2.57;;
5730;SDS011;2890;51.950;7.668;2023-08-01T14:06:49;3.40;;;2.40;;
5730;SDS011;2890;51.950;7.668;2023-08-01T14:09:17;3.73;;;2.10;;
5730;SDS011;2890;51.950;7.668;2023-08-01T14:11:44;3.63;;;2.40;;
5730;SDS011;2890;51.950;7.668;2023-08-01T14:14:10;4.90;;;2.70;;
5730;SDS011;2890;51.950;7.668;2023-08-01T14:16:37;4.37;;;2.23;;
5730;SDS011;2890;51.950;7.668;2023-08-01T14:19:03;4.27;;;2.40;;
5730;SDS011;2890;51.950;7.668;2023-08-01T14:21:31;3.80;;;2.77;;
5730;SDS011;2890;51.950;7.668;2023-08-01T14:23:59;4.20;;;2.17;;
5730;SDS011;2890;51.950;7.668;2023-08-01T14:26:27;5.23;;;2.53;;
5730;SDS011;2890;51.950;7.668;2023-08-01T14:28:53;4.13;;;2.33;;
5730;SDS011;2890;51.950;7.668;2023-08-01T14:31:20;7.93;;;2.57;;
5730;SDS011;2890;51.950;7.668;2023-08-01T14:33:46;7.87;;;3.10;;
5730;SDS011;2890;51.950;7.668;2023-08-01T14:36:13;5.53;;;2.23;;
5730;SDS011;2890;51.950;7.668;2023-08-01T14:38:39;5.43;;;2.90;;
5730;SDS011;2890;51.950;7.668;2023-08-01T14:41:06;5.53;;;2.50;;
5730;SDS011;2890;51.950;7.668;2023-08-01T14:43:34;7.73;;;3.00;;
5730;SDS011;2890;51.950;7.668;2023-08-01T14:46:00;3.27;;;2.33;;
5730;SDS011;2890;51.950;7.668;2023-08-01T14:48:27;5.87;;;2.67;;
5730;SDS011;2890;51.950;7.668;2023-08-01T14:50:54;3.80;;;2.37;;
5730;SDS011;2890;51.950;7.668;2023-08-01T14:53:20;4.63;;;2.30;;
5730;SDS011;2890;51.950;7.668;2023-08-01T14:55:55;3.00;;;2.50;;
5730;SDS011;2890;51.950;7.668;2023-08-01T14:58:22;3.27;;;2.53;;
5730;SDS011;2890;51.950;7.668;2023-08-01T15:00:50;8.00;;;2.50;;
5730;SDS011;2890;51.950;7.668;2023-08-01T15:03:16;5.53;;;2.53;;
5730;SDS011;2890;51.950;7.668;2023-08-01T15:05:43;4.27;;;2.47;;